This is the latest recevied weather packets stored in our database for station/object KB1WCR. If no packets are shown the sender has not sent any weather packets the latest 10 day(s).
| Time | Temp. | Humidity | Pressure | Rain* | Wind** | Luminosity | Snow |
|---|---|---|---|---|---|---|---|
| 1777695673 | 0.56° C | 92% | 1012.1 hPa | 0 mm | - | 0 W/m² | - |
| 1777695370 | 0.56° C | 92% | 1011.9 hPa | 0 mm | - | 0 W/m² | - |
| 1777695067 | 1.11° C | 91% | 1011.8 hPa | 0 mm | - | 0 W/m² | - |
| 1777694764 | 1.11° C | 90% | 1011.9 hPa | 0 mm | - | 0 W/m² | - |
| 1777694461 | 1.11° C | 90% | 1011.8 hPa | 0 mm | - | 0 W/m² | - |
| 1777694157 | 1.67° C | 90% | 1011.8 hPa | 0 mm | - | 0 W/m² | - |
| 1777693854 | 1.67° C | 89% | 1011.8 hPa | 0 mm | - | 0 W/m² | - |
| 1777693552 | 1.67° C | 89% | 1011.8 hPa | 0 mm | - | 0 W/m² | - |
| 1777693250 | 1.67° C | 89% | 1011.9 hPa | 0 mm | - | 0 W/m² | - |
| 1777692948 | 1.67° C | 89% | 1011.7 hPa | 0 mm | - | 0 W/m² | - |
| 1777692645 | 1.67° C | 89% | 1011.9 hPa | 0 mm | - | 0 W/m² | - |
| 1777692341 | 1.67° C | 89% | 1011.8 hPa | 0 mm | - | 0 W/m² | - |
| 1777692038 | 2.22° C | 88% | 1011.7 hPa | 0 mm | - | 0 W/m² | - |
| 1777691736 | 2.22° C | 87% | 1011.8 hPa | 0 mm | - | 0 W/m² | - |
| 1777691433 | 2.22° C | 86% | 1011.7 hPa | 0 mm | - | 0 W/m² | - |
| 1777691132 | 2.22° C | 86% | 1011.6 hPa | 0 mm | - | 0 W/m² | - |
| 1777690830 | 2.22° C | 86% | 1011.8 hPa | 0 mm | - | 0 W/m² | - |
| 1777690527 | 2.78° C | 85% | 1011.7 hPa | 0 mm | - | 0 W/m² | - |
| 1777690225 | 2.78° C | 84% | 1011.6 hPa | 0 mm | - | 0 W/m² | - |
| 1777689922 | 2.78° C | 84% | 1011.8 hPa | 0 mm | - | 0 W/m² | - |
| 1777689620 | 3.33° C | 83% | 1011.7 hPa | 0 mm | - | 0 W/m² | - |
| 1777689318 | 3.33° C | 83% | 1011.8 hPa | 0 mm | - | 0 W/m² | - |
| 1777689015 | 3.33° C | 82% | 1011.8 hPa | 0 mm | - | 0 W/m² | - |
| 1777688711 | 3.33° C | 81% | 1011.7 hPa | 0 mm | - | 0 W/m² | - |
| 1777674161 | 15° C | 36% | 1008.8 hPa | 0 mm | - | 76 W/m² | - |
* Rain latest hour (hover to see other rain measurements)
** Current wind speed in m/s (hover to see current wind gust speed)